Time;durP1;ratioP1;P1;durP2;ratioP2;P2;SDS_P1;SDS_P2;PMS_P1;PMS_P2;Temp;Humidity;BMP_temperature;BMP_pressure;BME280_temperature;BME280_humidity;BME280_pressure;Samples;Min_cycle;Max_cycle;Signal;HPM_P1;HPM_P2
2022/12/17 13:06:49;;;;;;;6.88;5.25;;;22.60;39.00;;;21.01;40.92;96553.38;5005455;28;20045;-61
2022/12/17 13:09:15;;;;;;;6.63;5.03;;;22.60;38.80;;;20.99;41.52;96555.47;4991886;28;20033;-62
2022/12/17 13:11:49;;;;;;;7.90;5.95;;;22.60;38.90;;;20.99;41.43;96555.47;5009462;28;20089;-61
2022/12/17 13:14:27;;;;;;;6.32;5.18;;;22.60;39.00;;;20.98;41.46;96551.19;4992720;28;20038;-62
2022/12/17 13:17:05;;;;;;;7.82;6.32;;;22.60;38.90;;;20.98;41.11;96556.53;4968822;28;20061;-61
2022/12/17 13:19:38;;;;;;;6.88;5.30;;;22.60;39.00;;;20.98;41.97;96565.34;4987355;28;20034;-61
2022/12/17 13:22:13;;;;;;;6.95;5.55;;;22.60;39.10;;;20.99;42.02;96568.84;4973672;28;20034;-61
2022/12/17 13:24:39;;;;;;;9.15;5.65;;;22.60;39.10;;;20.96;42.09;96563.97;4972576;28;20049;-61
2022/12/17 13:27:24;;;;;;;8.63;5.07;;;22.60;39.20;;;20.96;41.76;96569.34;4972338;28;20034;-61
2022/12/17 13:29:50;;;;;;;6.18;4.93;;;22.60;39.40;;;20.95;41.98;96573.06;4988964;28;20026;-61
2022/12/17 13:32:39;;;;;;;7.70;5.65;;;22.60;39.50;;;20.95;42.43;96578.41;4976832;28;20062;-61
2022/12/17 13:35:17;;;;;;;8.07;5.40;;;22.50;39.40;;;20.94;41.94;96584.81;4992386;28;20070;-61
2022/12/17 13:37:53;;;;;;;8.23;5.70;;;22.50;39.40;;;20.94;42.27;96587.50;5009417;28;20042;-61
2022/12/17 13:40:45;;;;;;;8.48;5.55;;;22.50;39.30;;;20.93;42.20;96592.03;4969950;28;20568;-61
2022/12/17 13:43:19;;;;;;;7.22;5.32;;;22.60;39.40;;;20.90;41.96;96589.84;4981876;28;20065;-62
2022/12/17 13:45:45;;;;;;;5.93;4.78;;;22.50;39.50;;;20.91;41.74;96599.50;4958549;28;20454;-61
2022/12/17 13:48:23;;;;;;;11.45;5.53;;;22.60;39.30;;;20.89;42.14;96590.91;4973847;28;20045;-62
2022/12/17 13:51:03;;;;;;;6.88;5.32;;;22.60;39.40;;;20.91;42.53;96598.69;4966600;28;20367;-61
2022/12/17 13:53:32;;;;;;;6.40;5.18;;;22.60;39.20;;;20.87;42.25;96594.88;4952248;28;20030;-61
2022/12/17 13:55:58;;;;;;;7.40;5.13;;;22.50;39.20;;;20.87;42.22;96602.88;5006695;28;20030;-61
2022/12/17 13:58:29;;;;;;;9.13;5.10;;;22.60;39.30;;;20.87;42.24;96600.22;4975824;28;20026;-61
2022/12/17 14:01:13;;;;;;;6.43;5.07;;;22.50;39.40;;;20.87;42.49;96602.88;4990858;28;20064;-61
2022/12/17 14:03:47;;;;;;;8.00;5.03;;;22.50;39.30;;;20.86;41.76;96611.97;4976328;28;20022;-62
2022/12/17 14:06:13;;;;;;;7.80;5.25;;;22.50;39.10;;;20.83;42.39;96615.13;5014748;28;20084;-61
2022/12/17 14:08:39;;;;;;;6.85;5.15;;;22.60;39.30;;;20.84;41.97;96619.41;4959257;28;20478;-61
2022/12/17 14:13:49;;;;;;;6.63;4.93;;;22.50;39.40;;;20.79;41.61;96636.97;5008237;28;20425;-61
2022/12/17 14:16:18;;;;;;;7.20;5.38;;;22.50;39.10;;;20.79;42.49;96642.31;4991657;28;20494;-61
2022/12/17 14:18:49;;;;;;;7.55;5.35;;;22.50;39.20;;;20.79;41.89;96628.94;4991845;28;20029;-61
2022/12/17 14:21:15;;;;;;;7.30;5.15;;;22.50;39.40;;;20.76;42.06;96637.47;4959715;28;20179;-61
2022/12/17 14:23:41;;;;;;;7.65;5.40;;;22.50;39.40;;;20.77;42.08;96636.41;4959720;28;20034;-61
2022/12/17 14:26:11;;;;;;;5.68;4.78;;;22.50;39.20;;;20.77;42.03;96633.72;4992005;28;20057;-61
2022/12/17 14:28:53;;;;;;;10.93;6.07;;;22.50;39.20;;;20.75;41.95;96643.84;4992101;28;20026;-62
2022/12/17 14:31:27;;;;;;;6.70;4.78;;;22.50;39.30;;;20.73;42.13;96635.25;4975620;28;20079;-61
2022/12/17 14:34:09;;;;;;;7.78;5.38;;;22.50;39.30;;;20.74;42.14;96630.72;4993736;28;20030;-61
2022/12/17 14:36:40;;;;;;;7.00;4.85;;;22.40;39.30;;;20.71;41.81;96648.06;4995744;28;20029;-61
2022/12/17 14:39:23;;;;;;;;;;;22.50;39.20;;;20.68;41.94;96648.53;4959849;28;20061;-61
2022/12/17 14:44:50;;;;;;;6.38;4.85;;;22.40;39.10;;;20.66;42.41;96656.00;4965698;28;20527;-61
2022/12/17 14:47:21;;;;;;;8.55;4.97;;;22.40;39.20;;;20.65;41.84;96651.69;4975865;28;20074;-61
2022/12/17 14:50:15;;;;;;;6.97;5.25;;;22.40;39.10;;;20.66;41.82;96666.69;4991236;28;20030;-61
2022/12/17 14:52:49;;;;;;;6.45;5.20;;;22.40;39.30;;;20.62;42.44;96654.84;4986063;28;20033;-61
2022/12/17 14:55:53;;;;;;;6.05;5.22;;;22.30;39.20;;;20.64;42.20;96655.44;4974826;28;20022;-61
2022/12/17 14:58:20;;;;;;;6.22;5.05;;;22.30;39.00;;;20.62;42.11;96657.53;5007595;28;20038;-61
2022/12/17 15:01:10;;;;;;;6.97;5.45;;;22.30;39.40;;;20.62;42.23;96660.19;4990713;28;20041;-61
2022/12/17 15:03:47;;;;;;;6.72;4.90;;;22.30;39.10;;;20.60;42.08;96656.97;4990548;28;20030;-62
2022/12/17 15:06:16;;;;;;;7.00;5.53;;;22.30;39.20;;;20.61;41.80;96661.25;4985004;28;20102;-62
2022/12/17 15:08:45;;;;;;;6.78;5.05;;;22.40;39.20;;;20.60;41.96;96667.66;4994331;28;20030;-62
2022/12/17 15:11:12;;;;;;;6.80;4.80;;;22.30;39.20;;;20.61;42.25;96663.94;4994137;28;20045;-62
2022/12/17 15:13:38;;;;;;;7.50;4.82;;;22.40;39.20;;;20.62;42.41;96670.91;4978544;28;20022;-62
2022/12/17 15:16:05;;;;;;;6.28;4.78;;;22.30;39.40;;;20.64;41.76;96674.13;4978475;28;20026;-61
2022/12/17 15:18:30;;;;;;;10.70;6.72;;;22.30;39.40;;;20.63;41.76;96675.19;4994788;28;20053;-61
2022/12/17 15:20:56;;;;;;;9.43;8.23;;;22.30;39.10;;;20.62;41.44;96675.44;4977439;28;20121;-61
2022/12/17 15:23:22;;;;;;;10.88;8.27;;;22.40;38.70;;;20.60;39.88;96670.31;4978646;28;20518;-62
2022/12/17 15:25:49;;;;;;;10.25;8.10;;;22.40;37.80;;;20.59;40.37;96671.34;4978031;28;20874;-61
2022/12/17 15:28:15;;;;;;;9.00;7.55;;;22.30;37.50;;;20.57;39.75;96673.44;4994503;28;20130;-62
2022/12/17 15:30:41;;;;;;;9.40;7.10;;;22.30;37.60;;;20.55;39.70;96669.38;4994032;28;20034;-61
2022/12/17 15:33:08;;;;;;;10.68;6.90;;;22.30;37.40;;;20.53;39.44;96672.31;4993687;28;20195;-61
2022/12/17 15:35:33;;;;;;;8.55;6.57;;;22.30;37.60;;;20.55;40.22;96675.53;4985777;28;20030;-61
2022/12/17 15:37:59;;;;;;;8.68;6.47;;;22.30;37.80;;;20.53;40.10;96672.31;4993596;28;20030;-61
2022/12/17 15:40:25;;;;;;;8.65;6.57;;;22.30;37.70;;;20.55;39.83;96674.72;4994139;28;20145;-61
2022/12/17 15:45:46;;;;;;;8.93;6.03;;;22.30;37.80;;;20.59;40.61;96676.69;4982309;28;20409;-61
2022/12/17 15:48:15;;;;;;;7.90;6.07;;;22.30;37.70;;;20.60;40.78;96681.00;4964536;28;20109;-61
2022/12/17 15:50:40;;;;;;;7.38;5.72;;;22.30;38.00;;;20.61;40.23;96681.81;4975551;28;20506;-61
2022/12/17 15:53:06;;;;;;;9.32;6.13;;;22.30;38.00;;;20.62;40.37;96684.25;4974057;28;20086;-61
2022/12/17 15:55:32;;;;;;;8.30;5.53;;;22.30;37.80;;;20.61;40.46;96690.66;4968340;28;20042;-61
2022/12/17 15:57:58;;;;;;;7.57;5.78;;;22.30;38.10;;;20.63;40.21;96687.75;4981316;28;20034;-61
2022/12/17 16:00:24;;;;;;;8.50;5.57;;;22.30;38.00;;;20.61;40.30;96685.31;4993753;28;20541;-61
2022/12/17 16:02:49;;;;;;;6.95;5.68;;;22.30;38.10;;;20.63;40.63;96683.22;4976801;28;20120;-62
2022/12/17 16:05:15;;;;;;;7.75;5.80;;;22.30;38.10;;;20.62;40.46;96689.59;4985694;28;20037;-61
2022/12/17 16:07:44;;;;;;;9.10;5.90;;;22.30;38.00;;;20.61;40.35;96685.31;4977556;28;20022;-61
2022/12/17 16:10:11;;;;;;;8.00;5.78;;;22.30;38.10;;;20.63;40.21;96688.56;4962106;28;20120;-61
2022/12/17 16:12:37;;;;;;;8.02;5.85;;;22.30;38.30;;;20.61;40.42;96690.66;4977130;28;20457;-62
2022/12/17 16:15:03;;;;;;;7.32;5.78;;;22.30;38.30;;;20.61;40.40;96693.34;4976653;28;20044;-61
2022/12/17 16:17:29;;;;;;;9.50;6.18;;;22.30;38.20;;;20.60;40.46;96689.03;4993657;28;20030;-62
2022/12/17 16:19:55;;;;;;;8.13;5.55;;;22.30;38.30;;;20.61;40.68;96695.19;4992493;28;20116;-61
2022/12/17 16:22:20;;;;;;;7.35;5.57;;;22.30;38.20;;;20.60;40.46;96699.72;4993375;28;20037;-61
2022/12/17 16:24:46;;;;;;;7.30;6.10;;;22.30;38.20;;;20.60;40.88;96698.91;4976078;28;20034;-62
2022/12/17 16:27:13;;;;;;;9.52;6.45;;;22.30;38.40;;;20.59;40.75;96700.75;5005596;28;20060;-61
2022/12/17 16:29:38;;;;;;;8.40;5.95;;;22.30;38.30;;;20.58;40.95;96704.47;4995455;28;20039;-62
2022/12/17 16:32:04;;;;;;;6.95;5.82;;;22.30;38.50;;;20.58;40.77;96698.31;4990146;28;20496;-61
2022/12/17 16:34:30;;;;;;;8.88;6.10;;;22.30;38.40;;;20.58;41.28;96692.97;4990096;28;20045;-61
2022/12/17 16:36:56;;;;;;;8.00;5.97;;;22.30;38.20;;;20.56;40.79;96698.56;4992482;28;20525;-62
2022/12/17 16:39:21;;;;;;;9.13;6.30;;;22.30;38.30;;;20.55;41.12;96707.63;4975343;28;20569;-62
2022/12/17 16:41:47;;;;;;;7.47;5.63;;;22.30;38.20;;;20.55;41.40;96707.63;5009847;28;20053;-62
2022/12/17 16:44:13;;;;;;;9.05;5.72;;;22.30;38.40;;;20.54;41.09;96710.53;4973826;28;20038;-62
2022/12/17 16:46:40;;;;;;;8.88;5.82;;;22.30;38.30;;;20.52;41.63;96707.28;5004332;28;20065;-62
